Time,TemperatureF,DewpointF,PressureIn,WindDirection,WindDirectionDegrees,WindSpeedMPH,WindSpeedGustMPH,Humidity,HourlyPrecipIn,Conditions,Clouds,dailyrainin,SoftwareType,DateUTC
2013-03-24 00:00:00,37.6,26.9,29.91,SSW,199,0.0,0.0,65,0.00,,,0.00,Wunderground v.1.15,2013-03-24 04:00:00,
2013-03-24 00:10:00,37.3,28.4,29.93,SSW,199,0.0,1.0,70,0.00,,,0.00,Wunderground v.1.15,2013-03-24 04:10:00,
2013-03-24 00:15:00,36.8,28.6,29.93,SSW,199,0.0,1.0,72,0.00,,,0.00,Wunderground v.1.15,2013-03-24 04:15:00,
2013-03-24 00:20:00,36.5,27.6,29.92,SSW,199,0.0,0.0,70,0.00,,,0.00,Wunderground v.1.15,2013-03-24 04:20:00,
2013-03-24 00:25:00,36.1,26.9,29.90,SSW,199,0.0,0.0,69,0.00,,,0.00,Wunderground v.1.15,2013-03-24 04:25:00,
2013-03-24 00:30:00,35.8,26.6,29.90,SSW,199,0.0,0.0,69,0.00,,,0.00,Wunderground v.1.15,2013-03-24 04:30:00,
2013-03-24 00:35:00,35.7,26.9,29.90,SSW,199,0.0,0.0,70,0.00,,,0.00,Wunderground v.1.15,2013-03-24 04:35:00,
2013-03-24 00:40:00,35.5,26.3,29.91,SSW,199,0.0,0.0,69,0.00,,,0.00,Wunderground v.1.15,2013-03-24 04:40:00,
2013-03-24 00:45:00,35.7,26.5,29.90,SSW,199,0.0,0.0,69,0.00,,,0.00,Wunderground v.1.15,2013-03-24 04:45:00,
2013-03-24 00:50:00,35.7,26.9,29.91,SSW,199,0.0,0.0,70,0.00,,,0.00,Wunderground v.1.15,2013-03-24 04:50:00,
2013-03-24 01:00:00,35.5,27.4,29.91,SSW,199,0.0,0.0,72,0.00,,,0.00,Wunderground v.1.15,2013-03-24 05:00:00,
2013-03-24 01:10:00,35.8,28.3,29.92,SSW,199,0.0,0.0,74,0.00,,,0.00,Wunderground v.1.15,2013-03-24 05:10:00,
2013-03-24 01:15:00,36.0,28.5,29.92,SSW,199,0.0,0.0,74,0.00,,,0.00,Wunderground v.1.15,2013-03-24 05:15:00,
2013-03-24 01:20:00,35.8,28.3,29.92,SSW,199,0.0,0.0,74,0.00,,,0.00,Wunderground v.1.15,2013-03-24 05:20:00,
2013-03-24 01:25:00,35.7,27.9,29.91,SSW,199,0.0,0.0,73,0.00,,,0.00,Wunderground v.1.15,2013-03-24 05:25:00,
2013-03-24 01:30:00,35.5,28.4,29.91,SSW,199,0.0,0.0,75,0.00,,,0.00,Wunderground v.1.15,2013-03-24 05:30:00,
2013-03-24 01:35:00,35.5,28.0,29.90,SSW,199,0.0,0.0,74,0.00,,,0.00,Wunderground v.1.15,2013-03-24 05:35:00,
2013-03-24 01:40:00,35.5,28.4,29.89,SSW,199,0.0,0.0,75,0.00,,,0.00,Wunderground v.1.15,2013-03-24 05:40:00,
2013-03-24 01:45:00,35.5,28.7,29.89,SSW,199,0.0,0.0,76,0.00,,,0.00,Wunderground v.1.15,2013-03-24 05:45:00,
2013-03-24 01:50:00,35.5,28.7,29.90,SSW,199,0.0,0.0,76,0.00,,,0.00,Wunderground v.1.15,2013-03-24 05:50:00,
2013-03-24 01:55:00,35.5,28.4,29.89,SSW,199,0.0,0.0,75,0.00,,,0.00,Wunderground v.1.15,2013-03-24 05:55:00,
2013-03-24 02:00:00,35.7,28.2,29.89,SSW,199,0.0,1.0,74,0.00,,,0.00,Wunderground v.1.15,2013-03-24 06:00:00,
2013-03-24 02:10:00,35.8,28.3,29.88,SSW,199,0.0,0.0,74,0.00,,,0.00,Wunderground v.1.15,2013-03-24 06:10:00,
2013-03-24 02:15:00,36.0,28.2,29.88,SSW,199,0.0,0.0,73,0.00,,,0.00,Wunderground v.1.15,2013-03-24 06:15:00,
2013-03-24 02:20:00,36.1,28.9,29.88,SSW,199,0.0,0.0,75,0.00,,,0.00,Wunderground v.1.15,2013-03-24 06:20:00,
2013-03-24 02:25:00,36.3,28.8,29.88,SSW,199,0.0,0.0,74,0.00,,,0.00,Wunderground v.1.15,2013-03-24 06:25:00,
2013-03-24 02:30:00,36.5,29.3,29.88,SSW,199,0.0,0.0,75,0.00,,,0.00,Wunderground v.1.15,2013-03-24 06:30:00,
2013-03-24 02:35:00,36.7,29.8,29.89,SSW,199,0.0,0.0,76,0.00,,,0.00,Wunderground v.1.15,2013-03-24 06:35:00,
2013-03-24 02:40:00,36.8,29.6,29.90,SSW,199,0.0,0.0,75,0.00,,,0.00,Wunderground v.1.15,2013-03-24 06:40:00,
2013-03-24 02:45:00,37.3,30.7,29.91,SSW,199,0.0,0.0,77,0.00,,,0.00,Wunderground v.1.15,2013-03-24 06:45:00,
2013-03-24 02:50:00,37.6,30.4,29.91,SSW,199,0.0,0.0,75,0.00,,,0.00,Wunderground v.1.15,2013-03-24 06:50:00,
2013-03-24 02:55:00,37.7,30.5,29.92,SSW,199,0.0,0.0,75,0.00,,,0.00,Wunderground v.1.15,2013-03-24 06:55:00,
2013-03-24 03:00:00,37.8,30.9,29.92,SSW,199,0.0,0.0,76,0.00,,,0.00,Wunderground v.1.15,2013-03-24 07:00:00,
2013-03-24 03:05:00,37.8,30.9,29.92,SSW,199,0.0,0.0,76,0.00,,,0.00,Wunderground v.1.15,2013-03-24 07:05:00,
2013-03-24 03:10:00,37.8,31.2,29.93,SSW,199,0.0,0.0,77,0.00,,,0.00,Wunderground v.1.15,2013-03-24 07:10:00,
2013-03-24 03:15:00,37.8,31.2,29.93,SSW,199,0.0,0.0,77,0.00,,,0.00,Wunderground v.1.15,2013-03-24 07:15:00,
2013-03-24 03:20:00,38.0,31.4,29.93,SSW,199,0.0,0.0,77,0.00,,,0.00,Wunderground v.1.15,2013-03-24 07:20:00,
2013-03-24 03:25:00,38.1,31.8,29.93,SSW,199,0.0,0.0,78,0.00,,,0.00,Wunderground v.1.15,2013-03-24 07:25:00,
2013-03-24 03:30:00,38.1,31.8,29.93,SSW,199,0.0,0.0,78,0.00,,,0.00,Wunderground v.1.15,2013-03-24 07:30:00,
2013-03-24 03:35:00,38.3,32.0,29.92,SSW,199,0.0,0.0,78,0.00,,,0.00,Wunderground v.1.15,2013-03-24 07:35:00,
2013-03-24 03:40:00,38.3,31.7,29.91,SSW,199,0.0,0.0,77,0.00,,,0.00,Wunderground v.1.15,2013-03-24 07:40:00,
2013-03-24 03:45:00,38.3,32.0,29.91,SSW,199,0.0,0.0,78,0.00,,,0.00,Wunderground v.1.15,2013-03-24 07:45:00,
2013-03-24 03:50:00,38.3,32.0,29.90,SSW,199,0.0,0.0,78,0.00,,,0.00,Wunderground v.1.15,2013-03-24 07:50:00,
2013-03-24 03:55:00,38.3,31.7,29.89,SSW,199,0.0,0.0,77,0.00,,,0.00,Wunderground v.1.15,2013-03-24 07:55:00,
2013-03-24 04:00:00,38.3,31.1,29.88,SSW,199,0.0,0.0,75,0.00,,,0.00,Wunderground v.1.15,2013-03-24 08:00:00,
2013-03-24 04:05:00,38.3,31.1,29.88,SSW,199,0.0,0.0,75,0.00,,,0.00,Wunderground v.1.15,2013-03-24 08:05:00,
2013-03-24 04:10:00,38.4,31.5,29.88,SSW,199,0.0,0.0,76,0.00,,,0.00,Wunderground v.1.15,2013-03-24 08:10:00,
2013-03-24 04:15:00,38.4,31.5,29.88,SSW,199,0.0,0.0,76,0.00,,,0.00,Wunderground v.1.15,2013-03-24 08:15:00,
2013-03-24 04:20:00,38.6,31.7,29.88,SSW,199,0.0,0.0,76,0.00,,,0.00,Wunderground v.1.15,2013-03-24 08:20:00,
2013-03-24 04:25:00,38.6,31.7,29.87,SSW,199,0.0,0.0,76,0.00,,,0.00,Wunderground v.1.15,2013-03-24 08:25:00,
2013-03-24 04:30:00,38.6,31.7,29.87,SSW,199,0.0,0.0,76,0.00,,,0.00,Wunderground v.1.15,2013-03-24 08:30:00,
2013-03-24 04:35:00,38.7,32.4,29.86,SSW,199,0.0,0.0,78,0.00,,,0.00,Wunderground v.1.15,2013-03-24 08:35:00,
2013-03-24 04:40:00,38.7,31.8,29.85,SSW,199,0.0,0.0,76,0.00,,,0.00,Wunderground v.1.15,2013-03-24 08:40:00,
2013-03-24 04:45:00,38.7,31.5,29.86,SSW,199,0.0,0.0,75,0.00,,,0.00,Wunderground v.1.15,2013-03-24 08:45:00,
2013-03-24 04:50:00,38.8,30.9,29.86,SSW,199,0.0,0.0,73,0.00,,,0.00,Wunderground v.1.15,2013-03-24 08:50:00,
2013-03-24 05:00:00,39.0,31.4,29.86,SSW,199,0.0,0.0,74,0.00,,,0.00,Wunderground v.1.15,2013-03-24 09:00:00,
2013-03-24 05:05:00,39.1,31.2,29.85,SSW,199,0.0,0.0,73,0.00,,,0.00,Wunderground v.1.15,2013-03-24 09:05:00,
2013-03-24 05:10:00,39.1,30.8,29.85,SSW,199,0.0,0.0,72,0.00,,,0.00,Wunderground v.1.15,2013-03-24 09:10:00,
2013-03-24 05:15:00,39.3,30.7,29.85,SSW,199,0.0,0.0,71,0.00,,,0.00,Wunderground v.1.15,2013-03-24 09:15:00,
2013-03-24 05:20:00,39.3,30.3,29.85,South,186,0.0,0.0,70,0.00,,,0.00,Wunderground v.1.15,2013-03-24 09:20:00,
2013-03-24 05:25:00,39.3,30.3,29.85,South,186,0.0,0.0,70,0.00,,,0.00,Wunderground v.1.15,2013-03-24 09:25:00,
2013-03-24 05:30:00,39.4,30.4,29.85,South,186,0.0,0.0,70,0.00,,,0.00,Wunderground v.1.15,2013-03-24 09:30:00,
2013-03-24 05:40:00,39.6,30.6,29.84,ENE,68,0.0,0.0,70,0.00,,,0.00,Wunderground v.1.15,2013-03-24 09:40:00,
2013-03-24 05:45:00,39.6,30.6,29.84,ENE,68,1.0,1.0,70,0.00,,,0.00,Wunderground v.1.15,2013-03-24 09:45:00,
2013-03-24 05:50:00,39.6,30.6,29.84,ENE,68,1.0,1.0,70,0.00,,,0.00,Wunderground v.1.15,2013-03-24 09:50:00,
2013-03-24 05:55:00,39.6,30.6,29.83,ENE,68,1.0,1.0,70,0.00,,,0.00,Wunderground v.1.15,2013-03-24 09:55:00,
2013-03-24 06:05:00,39.4,30.8,29.84,ENE,68,0.0,0.0,71,0.00,,,0.00,Wunderground v.1.15,2013-03-24 10:05:00,
2013-03-24 06:10:00,39.3,30.7,29.84,ENE,68,0.0,1.0,71,0.00,,,0.00,Wunderground v.1.15,2013-03-24 10:10:00,
2013-03-24 06:15:00,39.3,31.0,29.83,ENE,68,0.0,1.0,72,0.00,,,0.00,Wunderground v.1.15,2013-03-24 10:15:00,
2013-03-24 06:20:00,39.1,31.2,29.84,ENE,68,1.0,1.0,73,0.00,,,0.00,Wunderground v.1.15,2013-03-24 10:20:00,
2013-03-24 06:25:00,39.1,31.2,29.84,ENE,68,0.0,1.0,73,0.00,,,0.00,Wunderground v.1.15,2013-03-24 10:25:00,
2013-03-24 06:30:00,39.1,31.5,29.84,ENE,68,0.0,0.0,74,0.00,,,0.00,Wunderground v.1.15,2013-03-24 10:30:00,
2013-03-24 06:40:00,39.0,32.1,29.84,ENE,68,0.0,0.0,76,0.00,,,0.00,Wunderground v.1.15,2013-03-24 10:40:00,
2013-03-24 06:45:00,39.0,32.4,29.85,ENE,68,0.0,0.0,77,0.00,,,0.00,Wunderground v.1.15,2013-03-24 10:45:00,
2013-03-24 06:50:00,39.0,32.7,29.85,ENE,68,0.0,0.0,78,0.00,,,0.00,Wunderground v.1.15,2013-03-24 10:50:00,
2013-03-24 07:00:00,38.8,33.2,29.83,ENE,63,1.0,1.0,80,0.00,,,0.00,Wunderground v.1.15,2013-03-24 11:00:00,
2013-03-24 07:05:00,38.7,33.4,29.82,ENE,63,1.0,1.0,81,0.00,,,0.00,Wunderground v.1.15,2013-03-24 11:05:00,
2013-03-24 07:10:00,38.6,33.0,29.82,NE,43,1.0,2.0,80,0.00,,,0.00,Wunderground v.1.15,2013-03-24 11:10:00,
2013-03-24 07:20:00,38.4,32.8,29.83,NE,42,2.0,2.0,80,0.00,,,0.00,Wunderground v.1.15,2013-03-24 11:20:00,
2013-03-24 07:25:00,38.3,33.0,29.82,NE,42,1.0,2.0,81,0.00,,,0.00,Wunderground v.1.15,2013-03-24 11:25:00,
2013-03-24 07:30:00,38.3,33.3,29.81,NE,40,2.0,2.0,82,0.00,,,0.01,Wunderground v.1.15,2013-03-24 11:30:00,
2013-03-24 07:35:00,38.1,33.1,29.81,NE,44,2.0,2.0,82,0.00,,,0.01,Wunderground v.1.15,2013-03-24 11:35:00,
2013-03-24 07:40:00,38.1,33.1,29.81,NE,38,2.0,2.0,82,0.00,,,0.01,Wunderground v.1.15,2013-03-24 11:40:00,
2013-03-24 07:45:00,38.0,33.3,29.81,NE,38,2.0,2.0,83,0.00,,,0.02,Wunderground v.1.15,2013-03-24 11:45:00,
2013-03-24 07:50:00,37.8,33.1,29.81,NE,39,1.0,1.0,83,0.00,,,0.02,Wunderground v.1.15,2013-03-24 11:50:00,
2013-03-24 07:55:00,37.8,33.4,29.81,NE,39,1.0,1.0,84,0.00,,,0.02,Wunderground v.1.15,2013-03-24 11:55:00,
2013-03-24 08:00:00,37.8,33.7,29.82,NE,39,1.0,2.0,85,0.00,,,0.02,Wunderground v.1.15,2013-03-24 12:00:00,
2013-03-24 08:05:00,37.7,33.6,29.81,NE,40,1.0,2.0,85,0.00,,,0.03,Wunderground v.1.15,2013-03-24 12:05:00,
2013-03-24 08:10:00,37.7,33.9,29.80,NE,53,1.0,3.0,86,0.00,,,0.03,Wunderground v.1.15,2013-03-24 12:10:00,
2013-03-24 08:20:00,37.6,34.1,29.77,NE,55,3.0,5.0,87,0.07,,,0.04,Wunderground v.1.15,2013-03-24 12:20:00,
2013-03-24 08:25:00,37.4,33.9,29.76,NE,54,3.0,5.0,87,0.08,,,0.05,Wunderground v.1.15,2013-03-24 12:25:00,
2013-03-24 08:30:00,37.3,33.8,29.76,ENE,57,4.0,6.0,87,0.06,,,0.05,Wunderground v.1.15,2013-03-24 12:30:00,
2013-03-24 08:35:00,37.3,33.8,29.76,East,80,3.0,6.0,87,0.04,,,0.05,Wunderground v.1.15,2013-03-24 12:35:00,
2013-03-24 08:40:00,37.1,33.6,29.76,NE,42,3.0,3.0,87,0.00,,,0.05,Wunderground v.1.15,2013-03-24 12:40:00,
2013-03-24 08:45:00,37.1,33.9,29.76,NE,50,3.0,3.0,88,0.00,,,0.05,Wunderground v.1.15,2013-03-24 12:45:00,
2013-03-24 08:50:00,37.1,33.6,29.76,East,84,3.0,3.0,87,0.00,,,0.05,Wunderground v.1.15,2013-03-24 12:50:00,
2013-03-24 08:55:00,37.1,33.6,29.76,East,80,3.0,4.0,87,0.00,,,0.05,Wunderground v.1.15,2013-03-24 12:55:00,
2013-03-24 09:00:00,37.1,33.6,29.76,NE,39,3.0,3.0,87,0.00,,,0.05,Wunderground v.1.15,2013-03-24 13:00:00,
2013-03-24 09:05:00,37.1,33.6,29.76,NE,43,4.0,4.0,87,0.00,,,0.05,Wunderground v.1.15,2013-03-24 13:05:00,
2013-03-24 09:10:00,37.1,33.6,29.77,NNE,13,4.0,4.0,87,0.00,,,0.06,Wunderground v.1.15,2013-03-24 13:10:00,
2013-03-24 09:15:00,37.1,33.6,29.77,NE,34,4.0,5.0,87,0.00,,,0.06,Wunderground v.1.15,2013-03-24 13:15:00,
2013-03-24 09:20:00,37.1,33.6,29.77,NNE,17,4.0,5.0,87,0.05,,,0.07,Wunderground v.1.15,2013-03-24 13:20:00,
2013-03-24 09:25:00,37.1,33.9,29.78,NNE,32,4.0,5.0,88,0.05,,,0.07,Wunderground v.1.15,2013-03-24 13:25:00,
2013-03-24 09:30:00,37.1,33.9,29.79,NE,50,3.0,3.0,88,0.07,,,0.08,Wunderground v.1.15,2013-03-24 13:30:00,
2013-03-24 09:35:00,37.1,34.2,29.81,North,5,3.0,5.0,89,0.07,,,0.08,Wunderground v.1.15,2013-03-24 13:35:00,
2013-03-24 09:40:00,37.1,34.2,29.81,North,360,3.0,3.0,89,0.06,,,0.09,Wunderground v.1.15,2013-03-24 13:40:00,
2013-03-24 09:45:00,37.0,34.1,29.82,North,5,3.0,3.0,89,0.12,,,0.10,Wunderground v.1.15,2013-03-24 13:45:00,
2013-03-24 09:50:00,37.1,34.4,29.82,NNE,27,3.0,3.0,90,0.09,,,0.10,Wunderground v.1.15,2013-03-24 13:50:00,
2013-03-24 09:55:00,37.1,34.4,29.82,NE,39,3.0,3.0,90,0.08,,,0.11,Wunderground v.1.15,2013-03-24 13:55:00,
2013-03-24 10:00:00,37.1,34.4,29.82,North,9,3.0,3.0,90,0.10,,,0.12,Wunderground v.1.15,2013-03-24 14:00:00,
2013-03-24 10:05:00,37.1,34.4,29.82,NNE,32,3.0,4.0,90,0.08,,,0.12,Wunderground v.1.15,2013-03-24 14:05:00,
2013-03-24 10:10:00,37.3,34.6,29.82,NNE,22,3.0,3.0,90,0.07,,,0.13,Wunderground v.1.15,2013-03-24 14:10:00,
2013-03-24 10:15:00,37.3,34.9,29.78,NE,56,3.0,3.0,91,0.08,,,0.14,Wunderground v.1.15,2013-03-24 14:15:00,
2013-03-24 10:20:00,37.4,35.0,29.80,NNE,27,3.0,3.0,91,0.08,,,0.14,Wunderground v.1.15,2013-03-24 14:20:00,
2013-03-24 10:30:00,37.8,35.7,29.78,NNE,33,4.0,4.0,92,0.04,,,0.14,Wunderground v.1.15,2013-03-24 14:30:00,
2013-03-24 10:35:00,38.3,36.2,29.76,NNE,32,4.0,5.0,92,0.00,,,0.14,Wunderground v.1.15,2013-03-24 14:35:00,
2013-03-24 10:40:00,38.4,36.3,29.76,NE,56,5.0,5.0,92,0.00,,,0.14,Wunderground v.1.15,2013-03-24 14:40:00,
2013-03-24 10:45:00,38.4,36.0,29.76,NNE,28,5.0,6.0,91,0.00,,,0.14,Wunderground v.1.15,2013-03-24 14:45:00,
2013-03-24 10:50:00,38.4,36.0,29.75,NE,49,4.0,4.0,91,0.00,,,0.14,Wunderground v.1.15,2013-03-24 14:50:00,
2013-03-24 10:55:00,38.6,36.2,29.75,ENE,58,4.0,4.0,91,0.00,,,0.14,Wunderground v.1.15,2013-03-24 14:55:00,
2013-03-24 11:00:00,38.6,36.2,29.75,ENE,78,4.0,4.0,91,0.00,,,0.14,Wunderground v.1.15,2013-03-24 15:00:00,
2013-03-24 11:05:00,38.6,36.2,29.74,NE,36,3.0,5.0,91,0.00,,,0.14,Wunderground v.1.15,2013-03-24 15:05:00,
2013-03-24 11:10:00,38.4,35.7,29.74,NE,51,3.0,5.0,90,0.00,,,0.14,Wunderground v.1.15,2013-03-24 15:10:00,
2013-03-24 11:15:00,38.1,35.4,29.73,NE,40,5.0,5.0,90,0.00,,,0.14,Wunderground v.1.15,2013-03-24 15:15:00,
2013-03-24 11:20:00,38.1,35.4,29.74,NNE,15,5.0,5.0,90,0.00,,,0.14,Wunderground v.1.15,2013-03-24 15:20:00,
2013-03-24 11:25:00,38.1,35.4,29.73,NE,40,5.0,5.0,90,0.00,,,0.14,Wunderground v.1.15,2013-03-24 15:25:00,
2013-03-24 11:30:00,38.0,35.3,29.72,NE,52,5.0,5.0,90,0.00,,,0.14,Wunderground v.1.15,2013-03-24 15:30:00,
2013-03-24 11:35:00,38.0,35.3,29.72,NE,44,5.0,7.0,90,0.00,,,0.14,Wunderground v.1.15,2013-03-24 15:35:00,
2013-03-24 11:40:00,38.0,35.3,29.72,NE,51,5.0,5.0,90,0.00,,,0.14,Wunderground v.1.15,2013-03-24 15:40:00,
2013-03-24 11:45:00,38.0,35.3,29.72,NE,38,6.0,7.0,90,0.00,,,0.14,Wunderground v.1.15,2013-03-24 15:45:00,
2013-03-24 11:50:00,37.8,34.8,29.72,North,5,6.0,6.0,89,0.00,,,0.14,Wunderground v.1.15,2013-03-24 15:50:00,
2013-03-24 11:55:00,37.7,35.0,29.72,NNE,30,5.0,6.0,90,0.00,,,0.14,Wunderground v.1.15,2013-03-24 15:55:00,
2013-03-24 12:00:00,37.7,35.0,29.72,NE,34,5.0,5.0,90,0.00,,,0.14,Wunderground v.1.15,2013-03-24 16:00:00,
2013-03-24 12:05:00,37.7,35.3,29.71,NNE,19,5.0,5.0,91,0.00,,,0.15,Wunderground v.1.15,2013-03-24 16:05:00,
2013-03-24 12:10:00,37.6,35.2,29.71,NE,34,6.0,6.0,91,0.00,,,0.15,Wunderground v.1.15,2013-03-24 16:10:00,
2013-03-24 12:15:00,37.4,35.0,29.71,North,350,5.0,6.0,91,0.06,,,0.16,Wunderground v.1.15,2013-03-24 16:15:00,
2013-03-24 12:20:00,37.4,35.0,29.71,NNE,15,4.0,4.0,91,0.06,,,0.16,Wunderground v.1.15,2013-03-24 16:20:00,
2013-03-24 12:25:00,37.4,35.3,29.70,NNE,13,5.0,6.0,92,0.05,,,0.16,Wunderground v.1.15,2013-03-24 16:25:00,
2013-03-24 12:30:00,37.4,35.3,29.70,North,360,5.0,6.0,92,0.04,,,0.16,Wunderground v.1.15,2013-03-24 16:30:00,
2013-03-24 12:40:00,37.3,35.2,29.69,NE,54,5.0,7.0,92,0.00,,,0.16,Wunderground v.1.15,2013-03-24 16:40:00,
2013-03-24 12:45:00,37.3,35.2,29.68,NE,43,6.0,7.0,92,0.00,,,0.16,Wunderground v.1.15,2013-03-24 16:45:00,
2013-03-24 12:50:00,37.3,35.5,29.67,NNE,28,6.0,6.0,93,0.00,,,0.16,Wunderground v.1.15,2013-03-24 16:50:00,
2013-03-24 12:55:00,37.1,35.3,29.66,NNE,29,6.0,6.0,93,0.00,,,0.16,Wunderground v.1.15,2013-03-24 16:55:00,
2013-03-24 13:00:00,37.1,35.3,29.65,NE,55,6.0,9.0,93,0.00,,,0.16,Wunderground v.1.15,2013-03-24 17:00:00,
2013-03-24 13:05:00,37.3,35.5,29.65,North,5,6.0,9.0,93,0.00,,,0.16,Wunderground v.1.15,2013-03-24 17:05:00,
2013-03-24 13:10:00,37.3,35.5,29.65,NE,44,5.0,7.0,93,0.00,,,0.16,Wunderground v.1.15,2013-03-24 17:10:00,
2013-03-24 13:15:00,37.3,35.5,29.65,North,355,5.0,8.0,93,0.00,,,0.16,Wunderground v.1.15,2013-03-24 17:15:00,
2013-03-24 13:20:00,37.1,35.3,29.65,North,5,6.0,8.0,93,0.00,,,0.17,Wunderground v.1.15,2013-03-24 17:20:00,
2013-03-24 13:25:00,37.0,35.2,29.64,NNE,22,7.0,8.0,93,0.00,,,0.17,Wunderground v.1.15,2013-03-24 17:25:00,
2013-03-24 13:30:00,37.0,35.2,29.64,NNE,26,6.0,6.0,93,0.00,,,0.17,Wunderground v.1.15,2013-03-24 17:30:00,
2013-03-24 13:35:00,37.0,35.2,29.64,NE,40,6.0,8.0,93,0.00,,,0.17,Wunderground v.1.15,2013-03-24 17:35:00,
2013-03-24 13:40:00,36.8,35.0,29.64,NE,35,6.0,6.0,93,0.00,,,0.17,Wunderground v.1.15,2013-03-24 17:40:00,
2013-03-24 13:45:00,36.8,35.0,29.63,NE,38,5.0,6.0,93,0.00,,,0.17,Wunderground v.1.15,2013-03-24 17:45:00,
2013-03-24 13:50:00,36.8,35.0,29.63,NNE,21,5.0,5.0,93,0.00,,,0.17,Wunderground v.1.15,2013-03-24 17:50:00,
2013-03-24 13:55:00,36.7,34.9,29.62,NNE,22,5.0,6.0,93,0.00,,,0.18,Wunderground v.1.15,2013-03-24 17:55:00,
2013-03-24 14:00:00,36.7,34.9,29.63,NE,52,6.0,6.0,93,0.00,,,0.18,Wunderground v.1.15,2013-03-24 18:00:00,
2013-03-24 14:10:00,36.4,34.6,29.64,North,5,6.0,6.0,93,0.04,,,0.19,Wunderground v.1.15,2013-03-24 18:10:00,
2013-03-24 14:15:00,36.3,34.5,29.65,NNW,335,5.0,6.0,93,0.15,,,0.20,Wunderground v.1.15,2013-03-24 18:15:00,
2013-03-24 14:20:00,36.3,34.5,29.63,NNE,17,5.0,5.0,93,0.27,,,0.22,Wunderground v.1.15,2013-03-24 18:20:00,
2013-03-24 14:30:00,36.1,34.3,29.64,NNW,348,4.0,4.0,93,0.11,,,0.25,Wunderground v.1.15,2013-03-24 18:30:00,
2013-03-24 14:40:00,36.0,34.2,29.64,NNE,30,2.0,2.0,93,0.07,,,0.26,Wunderground v.1.15,2013-03-24 18:40:00,
2013-03-24 14:45:00,36.0,34.2,29.64,NNW,347,2.0,2.0,93,0.06,,,0.27,Wunderground v.1.15,2013-03-24 18:45:00,
2013-03-24 14:50:00,35.8,34.0,29.64,NNE,29,3.0,4.0,93,0.06,,,0.27,Wunderground v.1.15,2013-03-24 18:50:00,
2013-03-24 14:55:00,35.8,34.0,29.64,NNE,16,3.0,4.0,93,0.05,,,0.27,Wunderground v.1.15,2013-03-24 18:55:00,
2013-03-24 15:00:00,35.8,34.0,29.63,NE,47,4.0,4.0,93,0.04,,,0.28,Wunderground v.1.15,2013-03-24 19:00:00,
2013-03-24 15:05:00,35.8,34.0,29.62,NE,55,4.0,4.0,93,0.04,,,0.28,Wunderground v.1.15,2013-03-24 19:05:00,
2013-03-24 15:10:00,36.0,34.4,29.63,North,11,4.0,4.0,94,0.04,,,0.28,Wunderground v.1.15,2013-03-24 19:10:00,
2013-03-24 15:15:00,35.8,34.0,29.63,NNW,333,3.0,4.0,93,0.00,,,0.28,Wunderground v.1.15,2013-03-24 19:15:00,
2013-03-24 15:20:00,35.8,34.0,29.62,NNE,31,3.0,7.0,93,0.00,,,0.28,Wunderground v.1.15,2013-03-24 19:20:00,
2013-03-24 15:25:00,35.8,34.0,29.61,ENE,75,4.0,7.0,93,0.00,,,0.28,Wunderground v.1.15,2013-03-24 19:25:00,
2013-03-24 15:30:00,35.8,34.0,29.61,NNE,32,5.0,5.0,93,0.00,,,0.28,Wunderground v.1.15,2013-03-24 19:30:00,
2013-03-24 15:40:00,35.7,33.9,29.62,NNE,28,4.0,4.0,93,0.00,,,0.28,Wunderground v.1.15,2013-03-24 19:40:00,
2013-03-24 15:45:00,35.7,33.9,29.62,NE,37,4.0,4.0,93,0.00,,,0.28,Wunderground v.1.15,2013-03-24 19:45:00,
2013-03-24 15:50:00,35.5,33.7,29.63,North,10,2.0,2.0,93,0.00,,,0.28,Wunderground v.1.15,2013-03-24 19:50:00,
2013-03-24 16:00:00,35.4,33.6,29.65,NNW,342,3.0,4.0,93,0.00,,,0.28,Wunderground v.1.15,2013-03-24 20:00:00,
2013-03-24 16:10:00,35.4,33.6,29.65,North,349,3.0,5.0,93,0.00,,,0.29,Wunderground v.1.15,2013-03-24 20:10:00,
2013-03-24 16:15:00,35.4,33.6,29.65,North,9,4.0,5.0,93,0.00,,,0.29,Wunderground v.1.15,2013-03-24 20:15:00,
2013-03-24 16:20:00,35.4,33.6,29.65,NNE,13,5.0,5.0,93,0.00,,,0.29,Wunderground v.1.15,2013-03-24 20:20:00,
2013-03-24 16:25:00,35.3,33.5,29.64,North,5,5.0,7.0,93,0.00,,,0.29,Wunderground v.1.15,2013-03-24 20:25:00,
2013-03-24 16:30:00,35.3,33.5,29.64,North,5,5.0,5.0,93,0.00,,,0.29,Wunderground v.1.15,2013-03-24 20:30:00,
2013-03-24 16:35:00,35.3,33.5,29.64,North,360,5.0,5.0,93,0.00,,,0.29,Wunderground v.1.15,2013-03-24 20:35:00,
2013-03-24 16:40:00,35.4,33.6,29.64,NNE,31,4.0,4.0,93,0.00,,,0.29,Wunderground v.1.15,2013-03-24 20:40:00,
2013-03-24 16:45:00,35.4,33.6,29.63,NNE,22,3.0,6.0,93,0.00,,,0.29,Wunderground v.1.15,2013-03-24 20:45:00,
2013-03-24 16:50:00,35.4,33.6,29.62,North,10,4.0,4.0,93,0.00,,,0.29,Wunderground v.1.15,2013-03-24 20:50:00,
2013-03-24 16:55:00,35.4,33.6,29.62,NE,48,5.0,5.0,93,0.00,,,0.29,Wunderground v.1.15,2013-03-24 20:55:00,
2013-03-24 17:00:00,35.4,33.6,29.62,NE,48,4.0,10.0,93,0.00,,,0.29,Wunderground v.1.15,2013-03-24 21:00:00,
2013-03-24 17:05:00,35.3,33.5,29.62,NE,35,5.0,10.0,93,0.00,,,0.29,Wunderground v.1.15,2013-03-24 21:05:00,
2013-03-24 17:10:00,35.3,33.5,29.61,NE,41,6.0,6.0,93,0.00,,,0.29,Wunderground v.1.15,2013-03-24 21:10:00,
2013-03-24 17:20:00,35.3,33.5,29.60,NNE,13,5.0,5.0,93,0.00,,,0.29,Wunderground v.1.15,2013-03-24 21:20:00,
2013-03-24 17:30:00,35.3,33.5,29.59,NE,38,5.0,5.0,93,0.00,,,0.29,Wunderground v.1.15,2013-03-24 21:30:00,
2013-03-24 17:35:00,35.4,33.6,29.59,NNE,32,5.0,5.0,93,0.00,,,0.29,Wunderground v.1.15,2013-03-24 21:35:00,
2013-03-24 17:40:00,35.5,33.7,29.59,NE,37,4.0,4.0,93,0.00,,,0.29,Wunderground v.1.15,2013-03-24 21:40:00,
2013-03-24 17:45:00,35.5,33.7,29.58,NE,46,4.0,8.0,93,0.00,,,0.29,Wunderground v.1.15,2013-03-24 21:45:00,
2013-03-24 17:50:00,35.4,33.3,29.58,NE,55,5.0,7.0,92,0.00,,,0.29,Wunderground v.1.15,2013-03-24 21:50:00,
2013-03-24 17:55:00,35.4,33.0,29.58,ENE,71,6.0,7.0,91,0.00,,,0.29,Wunderground v.1.15,2013-03-24 21:55:00,
2013-03-24 18:00:00,35.3,32.9,29.58,NNE,30,6.0,7.0,91,0.00,,,0.29,Wunderground v.1.15,2013-03-24 22:00:00,
2013-03-24 18:05:00,35.3,32.7,29.57,NE,48,6.0,7.0,90,0.00,,,0.29,Wunderground v.1.15,2013-03-24 22:05:00,
2013-03-24 18:10:00,35.1,32.5,29.55,ENE,76,7.0,7.0,90,0.00,,,0.29,Wunderground v.1.15,2013-03-24 22:10:00,
2013-03-24 18:15:00,35.0,32.4,29.55,NE,34,7.0,7.0,90,0.00,,,0.29,Wunderground v.1.15,2013-03-24 22:15:00,
2013-03-24 18:20:00,34.8,32.2,29.56,NE,41,6.0,6.0,90,0.00,,,0.29,Wunderground v.1.15,2013-03-24 22:20:00,
2013-03-24 18:25:00,34.8,32.2,29.58,ENE,77,3.0,6.0,90,0.00,,,0.29,Wunderground v.1.15,2013-03-24 22:25:00,
2013-03-24 18:30:00,34.8,32.2,29.59,NE,46,2.0,2.0,90,0.00,,,0.29,Wunderground v.1.15,2013-03-24 22:30:00,
2013-03-24 18:35:00,34.7,32.1,29.59,NE,36,4.0,4.0,90,0.00,,,0.29,Wunderground v.1.15,2013-03-24 22:35:00,
2013-03-24 18:40:00,34.7,32.1,29.59,East,93,4.0,4.0,90,0.00,,,0.29,Wunderground v.1.15,2013-03-24 22:40:00,
2013-03-24 18:45:00,34.7,32.1,29.59,NNE,30,3.0,8.0,90,0.00,,,0.29,Wunderground v.1.15,2013-03-24 22:45:00,
2013-03-24 18:50:00,34.7,32.1,29.58,NE,55,4.0,4.0,90,0.00,,,0.29,Wunderground v.1.15,2013-03-24 22:50:00,
2013-03-24 18:55:00,34.7,32.1,29.59,ENE,71,3.0,4.0,90,0.00,,,0.29,Wunderground v.1.15,2013-03-24 22:55:00,
2013-03-24 19:00:00,34.7,32.1,29.58,NE,42,2.0,5.0,90,0.00,,,0.29,Wunderground v.1.15,2013-03-24 23:00:00,
2013-03-24 19:10:00,34.5,31.9,29.59,ESE,121,3.0,3.0,90,0.00,,,0.29,Wunderground v.1.15,2013-03-24 23:10:00,
2013-03-24 19:15:00,34.5,31.9,29.59,NE,53,3.0,3.0,90,0.00,,,0.29,Wunderground v.1.15,2013-03-24 23:15:00,
2013-03-24 19:20:00,34.5,31.9,29.60,NE,43,2.0,2.0,90,0.00,,,0.29,Wunderground v.1.15,2013-03-24 23:20:00,
2013-03-24 19:25:00,34.5,31.9,29.60,NE,55,2.0,2.0,90,0.00,,,0.29,Wunderground v.1.15,2013-03-24 23:25:00,
2013-03-24 19:30:00,34.4,31.8,29.61,NE,36,3.0,3.0,90,0.00,,,0.29,Wunderground v.1.15,2013-03-24 23:30:00,
2013-03-24 19:35:00,34.4,31.8,29.61,NE,55,2.0,4.0,90,0.00,,,0.29,Wunderground v.1.15,2013-03-24 23:35:00,
2013-03-24 19:40:00,34.4,31.8,29.61,NE,46,2.0,2.0,90,0.00,,,0.29,Wunderground v.1.15,2013-03-24 23:40:00,
2013-03-24 19:45:00,34.4,31.8,29.62,NE,46,2.0,2.0,90,0.00,,,0.29,Wunderground v.1.15,2013-03-24 23:45:00,
2013-03-24 19:50:00,34.4,31.8,29.62,NE,44,1.0,4.0,90,0.00,,,0.29,Wunderground v.1.15,2013-03-24 23:50:00,
2013-03-24 19:55:00,34.4,31.8,29.62,NE,43,2.0,4.0,90,0.00,,,0.29,Wunderground v.1.15,2013-03-24 23:55:00,
2013-03-24 20:00:00,34.4,31.8,29.62,NE,43,1.0,1.0,90,0.00,,,0.29,Wunderground v.1.15,2013-03-25 00:00:00,
2013-03-24 20:10:00,34.4,31.8,29.63,NE,45,1.0,1.0,90,0.00,,,0.29,Wunderground v.1.15,2013-03-25 00:10:00,
2013-03-24 20:15:00,34.4,31.8,29.63,NE,46,1.0,1.0,90,0.00,,,0.29,Wunderground v.1.15,2013-03-25 00:15:00,
2013-03-24 20:20:00,34.4,31.8,29.63,NNE,26,1.0,1.0,90,0.00,,,0.29,Wunderground v.1.15,2013-03-25 00:20:00,
2013-03-24 20:25:00,34.3,31.7,29.64,NE,42,1.0,1.0,90,0.00,,,0.29,Wunderground v.1.15,2013-03-25 00:25:00,
2013-03-24 20:30:00,34.3,31.7,29.64,NNE,21,1.0,1.0,90,0.00,,,0.29,Wunderground v.1.15,2013-03-25 00:30:00,
2013-03-24 20:35:00,34.3,31.7,29.64,NNE,21,1.0,2.0,90,0.00,,,0.29,Wunderground v.1.15,2013-03-25 00:35:00,
2013-03-24 20:40:00,34.3,31.7,29.64,NNE,17,1.0,1.0,90,0.00,,,0.29,Wunderground v.1.15,2013-03-25 00:40:00,
2013-03-24 20:45:00,34.3,31.7,29.64,NE,35,1.0,1.0,90,0.00,,,0.29,Wunderground v.1.15,2013-03-25 00:45:00,
2013-03-24 20:50:00,34.1,31.7,29.63,NNE,13,1.0,2.0,91,0.00,,,0.29,Wunderground v.1.15,2013-03-25 00:50:00,
2013-03-24 20:55:00,34.1,31.7,29.63,North,9,1.0,2.0,91,0.00,,,0.29,Wunderground v.1.15,2013-03-25 00:55:00,
2013-03-24 21:00:00,34.1,31.7,29.63,NE,44,1.0,1.0,91,0.00,,,0.29,Wunderground v.1.15,2013-03-25 01:00:00,
2013-03-24 21:10:00,34.1,31.7,29.63,NNE,27,1.0,1.0,91,0.00,,,0.29,Wunderground v.1.15,2013-03-25 01:10:00,
2013-03-24 21:15:00,34.0,31.6,29.64,NE,44,1.0,1.0,91,0.00,,,0.29,Wunderground v.1.15,2013-03-25 01:15:00,
2013-03-24 21:20:00,34.0,31.9,29.65,NNE,26,1.0,1.0,92,0.00,,,0.29,Wunderground v.1.15,2013-03-25 01:20:00,
2013-03-24 21:25:00,34.0,31.9,29.65,NNE,27,1.0,1.0,92,0.00,,,0.29,Wunderground v.1.15,2013-03-25 01:25:00,
2013-03-24 21:30:00,34.0,31.9,29.65,NNE,15,1.0,1.0,92,0.00,,,0.29,Wunderground v.1.15,2013-03-25 01:30:00,
2013-03-24 21:40:00,34.0,31.9,29.65,NNE,15,0.0,0.0,92,0.00,,,0.29,Wunderground v.1.15,2013-03-25 01:40:00,
2013-03-24 21:45:00,34.0,31.9,29.66,NNE,16,0.0,0.0,92,0.00,,,0.29,Wunderground v.1.15,2013-03-25 01:45:00,
2013-03-24 21:50:00,34.0,32.2,29.66,NNE,15,0.0,1.0,93,0.00,,,0.29,Wunderground v.1.15,2013-03-25 01:50:00,
2013-03-24 21:55:00,33.8,32.0,29.66,NNE,16,0.0,1.0,93,0.00,,,0.29,Wunderground v.1.15,2013-03-25 01:55:00,
2013-03-24 22:00:00,33.8,32.0,29.66,NNE,15,0.0,0.0,93,0.00,,,0.29,Wunderground v.1.15,2013-03-25 02:00:00,
2013-03-24 22:05:00,34.0,32.2,29.65,NNE,17,0.0,1.0,93,0.00,,,0.29,Wunderground v.1.15,2013-03-25 02:05:00,
2013-03-24 22:10:00,34.0,32.2,29.64,NE,48,1.0,2.0,93,0.00,,,0.29,Wunderground v.1.15,2013-03-25 02:10:00,
2013-03-24 22:15:00,34.0,32.2,29.63,NE,48,2.0,4.0,93,0.00,,,0.29,Wunderground v.1.15,2013-03-25 02:15:00,
2013-03-24 22:20:00,34.0,32.2,29.61,NE,42,2.0,4.0,93,0.00,,,0.29,Wunderground v.1.15,2013-03-25 02:20:00,
2013-03-24 22:25:00,34.0,32.5,29.60,ENE,61,3.0,4.0,94,0.00,,,0.29,Wunderground v.1.15,2013-03-25 02:25:00,
2013-03-24 22:30:00,33.8,32.3,29.61,NNE,26,2.0,2.0,94,0.00,,,0.29,Wunderground v.1.15,2013-03-25 02:30:00,
2013-03-24 22:40:00,33.8,32.3,29.60,NE,46,2.0,2.0,94,0.00,,,0.29,Wunderground v.1.15,2013-03-25 02:40:00,
2013-03-24 22:50:00,33.8,32.3,29.61,NE,37,1.0,2.0,94,0.00,,,0.29,Wunderground v.1.15,2013-03-25 02:50:00,
2013-03-24 22:55:00,33.8,32.3,29.61,NE,51,1.0,2.0,94,0.00,,,0.29,Wunderground v.1.15,2013-03-25 02:55:00,
2013-03-24 23:00:00,33.8,32.3,29.61,NE,42,2.0,2.0,94,0.00,,,0.29,Wunderground v.1.15,2013-03-25 03:00:00,
2013-03-24 23:05:00,33.8,32.5,29.61,NE,42,1.0,2.0,95,0.00,,,0.29,Wunderground v.1.15,2013-03-25 03:05:00,
2013-03-24 23:10:00,33.8,32.5,29.61,NE,42,1.0,1.0,95,0.00,,,0.29,Wunderground v.1.15,2013-03-25 03:10:00,
2013-03-24 23:15:00,33.8,32.5,29.61,NE,43,1.0,1.0,95,0.00,,,0.29,Wunderground v.1.15,2013-03-25 03:15:00,
2013-03-24 23:20:00,33.8,32.5,29.61,NE,43,1.0,1.0,95,0.00,,,0.29,Wunderground v.1.15,2013-03-25 03:20:00,
2013-03-24 23:25:00,33.8,32.5,29.61,ENE,57,1.0,2.0,95,0.00,,,0.29,Wunderground v.1.15,2013-03-25 03:25:00,
2013-03-24 23:30:00,33.8,32.5,29.60,NE,56,1.0,1.0,95,0.00,,,0.29,Wunderground v.1.15,2013-03-25 03:30:00,
2013-03-24 23:35:00,33.7,32.4,29.61,NE,56,0.0,1.0,95,0.00,,,0.29,Wunderground v.1.15,2013-03-25 03:35:00,
2013-03-24 23:40:00,33.7,32.4,29.62,NE,56,0.0,0.0,95,0.00,,,0.29,Wunderground v.1.15,2013-03-25 03:40:00,
2013-03-24 23:45:00,33.8,32.5,29.61,NE,56,0.0,2.0,95,0.00,,,0.29,Wunderground v.1.15,2013-03-25 03:45:00,
2013-03-24 23:50:00,33.8,32.5,29.61,NE,56,0.0,0.0,95,0.00,,,0.29,Wunderground v.1.15,2013-03-25 03:50:00,
2013-03-24 23:55:00,33.8,32.5,29.60,ENE,67,0.0,1.0,95,0.00,,,0.29,Wunderground v.1.15,2013-03-25 03:55:00,